createdAt,value
2023-02-09T00:00:12.349Z,6.17
2023-02-09T00:02:44.682Z,6.90
2023-02-09T00:05:13.809Z,6.60
2023-02-09T00:07:42.644Z,6.40
2023-02-09T00:10:11.629Z,6.60
2023-02-09T00:12:58.380Z,6.57
2023-02-09T00:15:28.143Z,5.93
2023-02-09T00:17:57.387Z,6.20
2023-02-09T00:20:25.808Z,6.93
2023-02-09T00:22:54.536Z,7.43
2023-02-09T00:25:24.430Z,6.43
2023-02-09T00:27:53.303Z,6.57
2023-02-09T00:30:22.141Z,6.87
2023-02-09T00:32:52.787Z,6.37
2023-02-09T00:35:22.065Z,6.53
2023-02-09T00:37:50.442Z,6.27
2023-02-09T00:40:21.508Z,6.50
2023-02-09T00:42:49.881Z,6.43
2023-02-09T00:45:19.305Z,6.10
2023-02-09T00:47:47.663Z,6.17
2023-02-09T00:50:18.537Z,7.13
2023-02-09T00:52:46.907Z,6.70
2023-02-09T00:55:17.538Z,6.27
2023-02-09T00:57:45.948Z,6.83
2023-02-09T01:00:16.801Z,6.33
2023-02-09T01:02:46.101Z,6.00
2023-02-09T01:05:15.366Z,5.87
2023-02-09T01:07:47.460Z,5.60
2023-02-09T01:10:16.349Z,5.97
2023-02-09T01:12:45.512Z,6.53
2023-02-09T01:15:14.605Z,6.10
2023-02-09T01:17:45.616Z,5.90
2023-02-09T01:20:14.647Z,6.10
2023-02-09T01:22:44.283Z,6.20
2023-02-09T01:25:13.962Z,6.27
2023-02-09T01:27:44.124Z,6.30
2023-02-09T01:30:13.974Z,5.83
2023-02-09T01:32:42.358Z,6.47
2023-02-09T01:35:12.301Z,6.17
2023-02-09T01:37:41.967Z,6.20
2023-02-09T01:40:12.284Z,5.37
2023-02-09T01:42:42.493Z,5.83
2023-02-09T01:45:29.994Z,6.20
2023-02-09T01:48:02.708Z,6.23
2023-02-09T01:50:35.480Z,5.70
2023-02-09T01:53:05.170Z,5.63
2023-02-09T01:55:38.153Z,4.90
2023-02-09T01:58:11.392Z,5.43
2023-02-09T02:00:40.386Z,5.70
2023-02-09T02:03:12.656Z,4.93
2023-02-09T02:05:45.737Z,5.80
2023-02-09T02:08:20.256Z,5.40
2023-02-09T02:10:49.128Z,6.17
2023-02-09T02:13:19.373Z,5.70
2023-02-09T02:16:04.076Z,5.97
2023-02-09T02:18:50.907Z,5.50
2023-02-09T02:21:43.915Z,5.30
2023-02-09T02:24:33.624Z,5.03
2023-02-09T02:27:05.653Z,5.70
2023-02-09T02:30:07.274Z,5.77
2023-02-09T02:32:46.972Z,5.87
2023-02-09T02:35:21.245Z,5.93
2023-02-09T02:38:01.203Z,6.27
2023-02-09T02:40:42.200Z,6.03
2023-02-09T02:43:23.634Z,6.03
2023-02-09T02:46:00.018Z,5.63
2023-02-09T02:48:36.913Z,5.57
2023-02-09T02:51:10.140Z,5.43
2023-02-09T02:53:43.973Z,4.63
2023-02-09T02:56:18.951Z,4.90
2023-02-09T02:58:50.212Z,5.03
2023-02-09T03:01:24.859Z,5.10
2023-02-09T03:03:56.300Z,5.00
2023-02-09T03:06:25.825Z,5.13
2023-02-09T03:08:56.623Z,5.13
2023-02-09T03:11:30.150Z,4.70
2023-02-09T03:14:18.076Z,4.87
2023-02-09T03:16:48.723Z,5.10
2023-02-09T03:19:36.628Z,8.47
2023-02-09T03:22:10.590Z,7.60
2023-02-09T03:24:46.885Z,7.20
2023-02-09T03:27:20.003Z,5.93
2023-02-09T03:29:52.952Z,6.03
2023-02-09T03:32:24.588Z,5.70
2023-02-09T03:34:55.510Z,5.70
2023-02-09T03:37:24.924Z,5.23
2023-02-09T03:39:53.358Z,5.10
2023-02-09T03:42:22.238Z,5.87
2023-02-09T03:44:52.225Z,5.17
2023-02-09T03:47:20.608Z,4.43
2023-02-09T03:49:49.786Z,5.00
2023-02-09T03:52:19.584Z,5.07
2023-02-09T03:54:49.282Z,5.07
2023-02-09T03:57:17.739Z,4.93
2023-02-09T03:59:46.894Z,5.63
2023-02-09T04:02:16.049Z,5.10
2023-02-09T04:04:45.075Z,4.70
2023-02-09T04:07:13.934Z,5.10
2023-02-09T04:09:43.706Z,5.53
2023-02-09T04:12:12.874Z,7.90
2023-02-09T04:14:41.242Z,6.57
2023-02-09T04:17:10.338Z,6.83
2023-02-09T04:19:38.688Z,6.03
2023-02-09T04:22:08.405Z,6.83
2023-02-09T04:24:37.261Z,8.70
2023-02-09T04:27:07.155Z,9.17
2023-02-09T04:29:36.220Z,7.40
2023-02-09T04:32:04.913Z,7.83
2023-02-09T04:34:34.969Z,7.70
2023-02-09T04:37:03.310Z,6.57
2023-02-09T04:39:31.692Z,12.40
2023-02-09T04:42:01.210Z,9.47
2023-02-09T04:44:31.577Z,7.30
2023-02-09T04:46:59.987Z,7.30
2023-02-09T04:49:28.872Z,6.57
2023-02-09T04:51:57.262Z,7.30
2023-02-09T04:54:27.248Z,6.80
2023-02-09T04:57:18.013Z,6.43
2023-02-09T04:59:47.094Z,8.73
2023-02-09T05:02:15.497Z,7.97
2023-02-09T05:04:44.805Z,6.93
2023-02-09T05:07:13.315Z,6.80
2023-02-09T05:09:42.347Z,6.70
2023-02-09T05:12:12.319Z,6.53
2023-02-09T05:14:41.167Z,6.10
2023-02-09T05:17:10.868Z,6.47
2023-02-09T05:19:40.113Z,6.20
2023-02-09T05:22:08.493Z,6.50
2023-02-09T05:24:38.371Z,6.53
2023-02-09T05:27:06.804Z,5.30
2023-02-09T05:29:36.158Z,5.93
2023-02-09T05:32:05.740Z,5.50
2023-02-09T05:34:35.496Z,5.17
2023-02-09T05:37:04.731Z,5.83
2023-02-09T05:39:33.748Z,5.93
2023-02-09T05:42:17.367Z,5.70
2023-02-09T05:44:47.469Z,5.57
2023-02-09T05:47:17.510Z,5.30
2023-02-09T05:49:48.519Z,5.80
2023-02-09T05:52:17.989Z,5.87
2023-02-09T05:54:48.472Z,6.53
2023-02-09T05:57:19.054Z,6.20
2023-02-09T05:59:47.529Z,7.57
2023-02-09T06:02:17.512Z,6.97
2023-02-09T06:04:47.737Z,5.97
2023-02-09T06:07:16.583Z,5.87
2023-02-09T06:09:45.012Z,5.97
2023-02-09T06:12:14.488Z,5.57
2023-02-09T06:14:43.387Z,6.37
2023-02-09T06:17:11.779Z,6.27
2023-02-09T06:19:41.063Z,6.40
2023-02-09T06:22:10.816Z,6.57
2023-02-09T06:24:40.754Z,7.37
2023-02-09T06:27:09.517Z,6.93
2023-02-09T06:29:37.886Z,7.37
2023-02-09T06:32:06.759Z,7.43
2023-02-09T06:34:35.247Z,9.03
2023-02-09T06:37:03.996Z,9.93
2023-02-09T06:39:33.775Z,8.87
2023-02-09T06:42:02.532Z,8.37
2023-02-09T06:44:30.868Z,8.27
2023-02-09T06:47:00.044Z,7.47
2023-02-09T06:49:28.389Z,6.50
2023-02-09T06:51:57.434Z,6.60
2023-02-09T06:54:28.818Z,6.87
2023-02-09T06:56:58.557Z,5.83
2023-02-09T06:59:27.492Z,6.37
2023-02-09T07:01:55.908Z,6.57
2023-02-09T07:04:24.404Z,5.60
2023-02-09T07:06:53.525Z,6.23
2023-02-09T07:09:21.890Z,6.77
2023-02-09T07:11:51.233Z,12.47
2023-02-09T07:14:21.031Z,12.77
2023-02-09T07:16:49.522Z,11.83
2023-02-09T07:19:19.143Z,10.47
2023-02-09T07:21:48.623Z,13.07
2023-02-09T07:24:17.039Z,13.47
2023-02-09T07:26:46.260Z,9.13
2023-02-09T07:29:15.014Z,9.10
2023-02-09T07:31:45.369Z,10.20
2023-02-09T07:34:13.833Z,7.07
2023-02-09T07:36:43.029Z,7.43
2023-02-09T07:39:11.917Z,7.07
2023-02-09T07:41:40.577Z,7.00
2023-02-09T07:44:10.504Z,6.73
2023-02-09T07:46:38.992Z,7.83
2023-02-09T07:49:09.574Z,7.23
2023-02-09T07:51:38.329Z,8.27
2023-02-09T07:54:09.604Z,9.27
2023-02-09T07:56:39.470Z,11.57
2023-02-09T07:59:08.349Z,12.70
2023-02-09T08:01:37.245Z,14.20
2023-02-09T08:04:05.838Z,8.70
2023-02-09T08:06:42.901Z,7.70
2023-02-09T08:09:12.938Z,7.00
2023-02-09T08:11:46.026Z,8.73
2023-02-09T08:14:18.977Z,7.90
2023-02-09T08:16:50.506Z,8.00
2023-02-09T08:19:23.434Z,8.33
2023-02-09T08:21:53.361Z,8.70
2023-02-09T08:24:23.344Z,7.90
2023-02-09T08:26:51.728Z,7.87
2023-02-09T08:29:21.004Z,7.70
2023-02-09T08:31:49.961Z,8.13
2023-02-09T08:34:18.364Z,7.80
2023-02-09T08:36:48.336Z,7.17
2023-02-09T08:39:18.059Z,7.80
2023-02-09T08:41:46.565Z,8.20
2023-02-09T08:44:14.968Z,8.13
2023-02-09T08:46:44.443Z,9.17
2023-02-09T08:49:13.127Z,8.37
2023-02-09T08:51:43.140Z,7.70
2023-02-09T08:54:11.506Z,7.97
2023-02-09T08:56:43.286Z,9.13
2023-02-09T08:59:12.958Z,9.13
2023-02-09T09:01:42.396Z,9.30
2023-02-09T09:04:11.682Z,9.73
2023-02-09T09:06:40.102Z,9.30
2023-02-09T09:09:09.401Z,9.47
2023-02-09T09:11:38.212Z,8.83
2023-02-09T09:14:08.785Z,9.83
2023-02-09T09:16:38.031Z,10.23
2023-02-09T09:19:06.725Z,9.87
2023-02-09T09:21:36.609Z,10.23
2023-02-09T09:24:06.087Z,10.17
2023-02-09T09:26:35.106Z,9.80
2023-02-09T09:29:04.728Z,10.17
2023-02-09T09:31:34.555Z,9.90
2023-02-09T09:34:03.507Z,9.03
2023-02-09T09:36:33.908Z,9.60
2023-02-09T09:39:02.557Z,9.23
2023-02-09T09:41:34.991Z,9.53
2023-02-09T09:44:04.512Z,9.67
2023-02-09T09:46:38.592Z,8.90
2023-02-09T09:49:07.436Z,9.40
2023-02-09T09:51:42.162Z,9.63
2023-02-09T09:54:17.095Z,9.83
2023-02-09T09:56:46.483Z,10.20
2023-02-09T09:59:18.984Z,8.93
2023-02-09T10:01:51.946Z,10.83
2023-02-09T10:04:21.461Z,10.33
2023-02-09T10:06:59.583Z,9.77
2023-02-09T10:09:37.248Z,9.87
2023-02-09T10:12:19.363Z,10.27
2023-02-09T10:14:47.733Z,10.83
2023-02-09T10:17:18.447Z,10.80
2023-02-09T10:20:01.921Z,9.23
2023-02-09T10:22:31.863Z,10.37
2023-02-09T10:25:00.698Z,11.73
2023-02-09T10:27:33.026Z,10.83
2023-02-09T10:30:18.374Z,11.53
2023-02-09T10:32:49.447Z,11.10
2023-02-09T10:35:26.831Z,11.03
2023-02-09T10:38:02.017Z,11.00
2023-02-09T10:40:32.678Z,11.23
2023-02-09T10:43:03.967Z,12.80
2023-02-09T10:45:40.599Z,12.80
2023-02-09T10:48:19.812Z,12.10
2023-02-09T10:50:54.155Z,12.57
2023-02-09T10:53:27.260Z,11.67
2023-02-09T10:56:02.683Z,11.70
2023-02-09T10:58:33.857Z,13.47
2023-02-09T11:01:19.095Z,14.20
2023-02-09T11:04:01.289Z,13.77
2023-02-09T11:06:37.579Z,13.73
2023-02-09T11:09:13.318Z,13.27
2023-02-09T11:11:44.513Z,14.87
2023-02-09T11:14:15.176Z,14.80
2023-02-09T11:16:55.172Z,14.30
2023-02-09T11:19:48.009Z,15.30
2023-02-09T11:22:28.831Z,14.40
2023-02-09T11:25:12.134Z,15.00
2023-02-09T11:27:56.498Z,15.40
2023-02-09T11:30:43.577Z,15.17
2023-02-09T11:33:21.553Z,14.37
2023-02-09T11:36:08.736Z,15.43
2023-02-09T11:38:43.676Z,15.07
2023-02-09T11:41:36.663Z,16.80
2023-02-09T11:44:11.044Z,16.20
2023-02-09T11:46:40.929Z,16.50
2023-02-09T11:49:18.585Z,16.07
2023-02-09T11:51:51.262Z,15.57
2023-02-09T11:54:24.453Z,16.77
2023-02-09T11:57:00.697Z,17.70
2023-02-09T11:59:34.359Z,16.00
2023-02-09T12:02:11.504Z,18.33
2023-02-09T12:04:45.407Z,17.30
2023-02-09T12:07:22.612Z,16.83
2023-02-09T12:09:56.743Z,17.47
2023-02-09T12:12:33.311Z,17.00
2023-02-09T12:15:12.754Z,17.40
2023-02-09T12:17:47.578Z,16.57
2023-02-09T12:20:27.673Z,17.47
2023-02-09T12:23:07.894Z,17.57
2023-02-09T12:25:52.225Z,18.30
2023-02-09T12:28:43.793Z,16.90
2023-02-09T12:31:22.857Z,16.40
2023-02-09T12:34:28.262Z,15.83
2023-02-09T12:37:20.545Z,16.30
2023-02-09T12:40:18.268Z,15.60
2023-02-09T12:43:04.027Z,16.27
2023-02-09T12:45:36.645Z,16.43
2023-02-09T12:48:14.496Z,17.33
2023-02-09T12:50:50.344Z,17.83
2023-02-09T12:53:47.270Z,15.97
2023-02-09T12:56:30.577Z,16.30
2023-02-09T12:59:23.756Z,15.40
2023-02-09T13:02:16.332Z,16.25
2023-02-09T13:04:58.038Z,16.77
2023-02-09T13:07:39.878Z,16.40
2023-02-09T13:10:17.993Z,16.15
2023-02-09T13:12:54.290Z,16.83
2023-02-09T13:15:22.681Z,16.20
2023-02-09T13:18:06.209Z,17.10
2023-02-09T13:21:11.288Z,16.25
2023-02-09T13:23:51.791Z,16.55
2023-02-09T13:26:23.535Z,16.95
2023-02-09T13:29:19.756Z,15.35
2023-02-09T13:32:00.326Z,16.25
2023-02-09T13:34:37.581Z,17.30
2023-02-09T13:37:19.901Z,16.15
2023-02-09T13:39:57.374Z,15.13
2023-02-09T13:42:27.719Z,16.67
2023-02-09T13:45:01.359Z,17.02
2023-02-09T13:47:30.769Z,15.32
2023-02-09T13:50:01.357Z,14.60
2023-02-09T13:52:36.924Z,14.80
2023-02-09T13:55:13.466Z,14.75
2023-02-09T13:57:46.047Z,15.32
2023-02-09T14:00:24.729Z,14.45
2023-02-09T14:02:56.937Z,17.90
2023-02-09T14:05:39.490Z,14.80
2023-02-09T14:08:09.633Z,14.77
2023-02-09T14:10:38.753Z,14.93
2023-02-09T14:13:16.438Z,14.90
2023-02-09T14:16:06.291Z,15.60
2023-02-09T14:18:48.106Z,15.15
2023-02-09T14:21:22.084Z,15.80
2023-02-09T14:24:05.611Z,15.13
2023-02-09T14:26:38.186Z,15.50
2023-02-09T14:29:18.011Z,14.98
2023-02-09T14:31:51.384Z,15.13
2023-02-09T14:34:35.327Z,16.08
2023-02-09T14:37:25.974Z,15.95
2023-02-09T14:39:55.533Z,16.20
2023-02-09T14:42:25.317Z,15.27
2023-02-09T14:44:55.395Z,14.70
2023-02-09T14:47:32.647Z,14.45
2023-02-09T14:50:01.685Z,16.55
2023-02-09T14:52:33.103Z,15.50
2023-02-09T14:55:06.758Z,15.13
2023-02-09T14:57:37.455Z,14.80
2023-02-09T15:00:18.949Z,15.38
2023-02-09T15:02:49.442Z,15.82
2023-02-09T15:05:20.007Z,15.38
2023-02-09T15:07:52.003Z,16.13
2023-02-09T15:10:27.715Z,15.32
2023-02-09T15:12:57.133Z,14.52
2023-02-09T15:15:28.077Z,14.13
2023-02-09T15:17:59.679Z,15.10
2023-02-09T15:20:31.845Z,15.77
2023-02-09T15:23:01.271Z,15.48
2023-02-09T15:25:30.475Z,17.45
2023-02-09T15:28:01.528Z,15.20
2023-02-09T15:30:33.461Z,15.20
2023-02-09T15:33:04.066Z,15.57
2023-02-09T15:35:33.486Z,14.27
2023-02-09T15:38:02.764Z,15.98
2023-02-09T15:40:52.329Z,14.97
2023-02-09T15:43:40.170Z,15.87
2023-02-09T15:46:27.980Z,17.20
2023-02-09T15:48:58.379Z,16.57
2023-02-09T15:51:32.308Z,15.13
2023-02-09T15:54:03.567Z,15.77
2023-02-09T15:56:33.077Z,16.17
2023-02-09T15:59:03.912Z,16.27
2023-02-09T16:01:34.552Z,16.20
2023-02-09T16:04:14.801Z,14.83
2023-02-09T16:06:47.876Z,15.73
2023-02-09T16:09:20.339Z,15.97
2023-02-09T16:11:49.624Z,15.57
2023-02-09T16:14:20.436Z,15.73
2023-02-09T16:16:51.344Z,15.70
2023-02-09T16:19:21.673Z,15.90
2023-02-09T16:21:55.455Z,14.87
2023-02-09T16:24:32.490Z,14.43
2023-02-09T16:27:02.296Z,15.20
2023-02-09T16:29:30.764Z,22.43
2023-02-09T16:32:00.126Z,34.37
2023-02-09T16:34:29.866Z,30.33
2023-02-09T16:36:59.255Z,28.07
2023-02-09T16:39:27.696Z,28.37
2023-02-09T16:41:57.673Z,23.90
2023-02-09T16:44:29.284Z,25.80
2023-02-09T16:47:01.394Z,22.53
2023-02-09T16:49:37.581Z,22.40
2023-02-09T16:52:14.944Z,17.57
2023-02-09T16:54:45.842Z,16.07
2023-02-09T16:57:16.417Z,20.73
2023-02-09T16:59:45.492Z,17.33
2023-02-09T17:02:30.747Z,16.20
2023-02-09T17:05:03.539Z,15.13
2023-02-09T17:07:48.850Z,16.17
2023-02-09T17:10:26.457Z,16.53
2023-02-09T17:12:54.810Z,16.00
2023-02-09T17:15:31.409Z,17.97
2023-02-09T17:18:03.087Z,18.67
2023-02-09T17:20:37.848Z,15.53
2023-02-09T17:23:08.081Z,15.40
2023-02-09T17:25:36.535Z,16.30
2023-02-09T17:28:06.075Z,15.50
2023-02-09T17:30:35.532Z,16.10
2023-02-09T17:33:07.740Z,32.00
2023-02-09T17:36:17.525Z,25.53
2023-02-09T17:38:33.030Z,17.00
2023-02-09T17:41:03.564Z,26.33
2023-02-09T17:43:33.165Z,23.80
2023-02-09T17:46:02.129Z,23.43
2023-02-09T17:48:30.551Z,18.77
2023-02-09T17:53:50.243Z,19.90
2023-02-09T17:56:19.329Z,20.67
2023-02-09T17:58:49.257Z,20.30
2023-02-09T18:01:26.499Z,20.33
2023-02-09T18:03:56.943Z,19.97
2023-02-09T18:06:34.273Z,19.80
2023-02-09T18:09:07.210Z,19.30
2023-02-09T18:11:59.639Z,20.00
2023-02-09T18:14:29.285Z,19.23
2023-02-09T18:16:58.400Z,20.53
2023-02-09T18:19:27.758Z,25.83
2023-02-09T18:21:59.306Z,26.07
2023-02-09T18:24:30.529Z,34.67
2023-02-09T18:26:59.909Z,24.80
2023-02-09T18:29:30.623Z,20.30
2023-02-09T18:32:00.299Z,23.10
2023-02-09T18:34:29.828Z,22.93
2023-02-09T18:36:59.754Z,21.27
2023-02-09T18:39:28.169Z,21.40
2023-02-09T18:41:57.761Z,21.83
2023-02-09T18:44:29.142Z,22.80
2023-02-09T18:47:00.918Z,25.40
2023-02-09T18:49:29.575Z,24.50
2023-02-09T18:51:59.555Z,29.13
2023-02-09T18:54:29.150Z,31.10
2023-02-09T18:56:57.727Z,37.23
2023-02-09T18:59:29.867Z,28.77
2023-02-09T19:01:58.906Z,33.40
2023-02-09T19:04:27.885Z,32.87
2023-02-09T19:06:56.276Z,30.27
2023-02-09T19:09:26.684Z,27.10
2023-02-09T19:11:55.272Z,25.40
2023-02-09T19:14:39.345Z,25.20
2023-02-09T19:17:09.983Z,24.57
2023-02-09T19:19:38.984Z,24.87
2023-02-09T19:22:07.579Z,26.70
2023-02-09T19:24:38.217Z,28.00
2023-02-09T19:27:09.237Z,30.13
2023-02-09T19:29:41.525Z,30.07
2023-02-09T19:32:10.791Z,26.57
2023-02-09T19:34:41.017Z,27.50
2023-02-09T19:37:11.965Z,31.30
2023-02-09T19:39:41.710Z,30.50
2023-02-09T19:42:11.021Z,29.20
2023-02-09T19:44:39.516Z,30.70
2023-02-09T19:47:08.960Z,29.37
2023-02-09T19:49:38.845Z,29.87
2023-02-09T19:52:08.554Z,27.33
2023-02-09T19:54:36.952Z,27.90
2023-02-09T19:57:06.770Z,25.33
2023-02-09T19:59:38.055Z,26.40
2023-02-09T20:02:06.633Z,25.73
2023-02-09T20:04:36.494Z,25.27
2023-02-09T20:07:05.093Z,24.83
2023-02-09T20:09:33.728Z,24.97
2023-02-09T20:12:02.064Z,25.37
2023-02-09T20:14:33.586Z,26.23
2023-02-09T20:17:02.332Z,26.37
2023-02-09T20:19:31.387Z,29.03
2023-02-09T20:21:59.753Z,30.53
2023-02-09T20:24:28.542Z,34.07
2023-02-09T20:26:57.454Z,34.77
2023-02-09T20:29:25.841Z,35.60
2023-02-09T20:31:56.052Z,36.90
2023-02-09T20:34:24.512Z,34.60
2023-02-09T20:36:54.374Z,31.10
2023-02-09T20:39:23.846Z,28.63
2023-02-09T20:42:14.795Z,28.23
2023-02-09T20:45:01.023Z,26.17
2023-02-09T20:47:30.841Z,27.40
2023-02-09T20:50:00.882Z,27.87
2023-02-09T20:52:29.806Z,26.97
2023-02-09T20:54:58.764Z,29.43
2023-02-09T20:57:30.697Z,29.67
2023-02-09T20:59:59.596Z,27.73
2023-02-09T21:02:30.706Z,32.37
2023-02-09T21:04:59.491Z,38.57
2023-02-09T21:07:28.398Z,37.87
2023-02-09T21:09:56.971Z,37.83
2023-02-09T21:12:26.238Z,40.10
2023-02-09T21:14:56.498Z,36.07
2023-02-09T21:17:25.376Z,30.07
2023-02-09T21:19:55.489Z,29.37
2023-02-09T21:22:23.829Z,29.07
2023-02-09T21:24:52.640Z,29.67
2023-02-09T21:27:21.349Z,30.13
2023-02-09T21:29:50.080Z,28.90
2023-02-09T21:32:19.150Z,31.60
2023-02-09T21:34:47.643Z,32.23
2023-02-09T21:37:18.498Z,33.23
2023-02-09T21:39:46.884Z,32.93
2023-02-09T21:42:28.890Z,32.67
2023-02-09T21:44:57.540Z,31.80
2023-02-09T21:47:28.949Z,34.10
2023-02-09T21:49:57.603Z,32.63
2023-02-09T21:52:29.336Z,33.27
2023-02-09T21:54:57.746Z,32.20
2023-02-09T21:57:28.048Z,31.17
2023-02-09T21:59:56.768Z,29.93
2023-02-09T22:02:27.816Z,28.03
2023-02-09T22:04:56.424Z,32.20
2023-02-09T22:07:25.332Z,31.77
2023-02-09T22:09:56.293Z,31.73
2023-02-09T22:12:24.731Z,31.87
2023-02-09T22:14:53.578Z,32.03
2023-02-09T22:17:21.998Z,31.47
2023-02-09T22:19:52.009Z,33.67
2023-02-09T22:22:20.342Z,31.93
2023-02-09T22:24:49.607Z,33.33
2023-02-09T22:27:20.305Z,32.60
2023-02-09T22:29:48.656Z,35.10
2023-02-09T22:32:17.511Z,31.73
2023-02-09T22:34:45.886Z,32.27
2023-02-09T22:37:14.900Z,31.10
2023-02-09T22:39:44.914Z,30.93
2023-02-09T22:42:13.799Z,31.03
2023-02-09T22:44:43.580Z,29.73
2023-02-09T22:47:13.081Z,30.30
2023-02-09T22:49:41.660Z,31.67
2023-02-09T22:52:10.817Z,35.17
2023-02-09T22:54:39.294Z,35.37
2023-02-09T22:57:07.707Z,32.73
2023-02-09T22:59:37.398Z,34.00
2023-02-09T23:02:07.296Z,33.77
2023-02-09T23:04:36.201Z,32.83
2023-02-09T23:07:05.138Z,32.47
2023-02-09T23:09:34.004Z,31.87
2023-02-09T23:12:02.891Z,31.93
2023-02-09T23:14:31.261Z,32.93
2023-02-09T23:17:00.985Z,32.60
2023-02-09T23:19:30.940Z,32.57
2023-02-09T23:21:59.814Z,33.70
2023-02-09T23:24:28.270Z,32.33
2023-02-09T23:26:57.795Z,32.90
2023-02-09T23:29:26.249Z,32.13
2023-02-09T23:31:55.476Z,32.73
2023-02-09T23:34:24.290Z,34.33
2023-02-09T23:36:53.993Z,33.43
2023-02-09T23:39:25.712Z,32.00
2023-02-09T23:41:54.190Z,30.87
2023-02-09T23:44:23.076Z,31.97
2023-02-09T23:46:51.531Z,32.47
2023-02-09T23:49:20.282Z,32.53
2023-02-09T23:51:48.598Z,31.27
2023-02-09T23:54:19.989Z,30.53
2023-02-09T23:56:50.547Z,31.10
2023-02-09T23:59:18.895Z,32.27
